Flight Track Log - Related Links

Times and Time Zones

All times are in EST time to prevent confusion due to time zone crossing. See the BHR29 flight status page for this flight to view local times or setup timezone preferences in your user account.

Time Position Orientation Groundspeed Altitude Reporting Facility
EST Latitude Longitude Course Direction KTS MPH feet Rate Location/Type
Tue 07:14:47 PM 43.1011 -108.3900 32° Northeast 179 206 8,900  Level Salt Lake Center
Tue 07:15:49 PM 43.1356 -108.3600 32° Northeast 152 175 10,600 1,742 Climbing Salt Lake Center
Tue 07:16:51 PM 43.1717 -108.3339 28° Northeast 149 171 12,500 1,694 Climbing Salt Lake Center
Tue 07:17:53 PM 43.2058 -108.3056 31° Northeast 145 167 14,100 1,707 Climbing Salt Lake Center
Tue 07:18:54 PM 43.2489 -108.2706 31° Northeast 149 171 16,000 1,463 Climbing Salt Lake Center
Tue 07:19:56 PM 43.2844 -108.2375 34° Northeast 152 175 17,100 484 Climbing Salt Lake Center
Tue 07:20:58 PM 43.3331 -108.1994 30° Northeast 192 221 17,000 -48 Descending Salt Lake Center
Tue 07:22:00 PM 43.3867 -108.1611 27° Northeast 213 245 17,000  Level Salt Lake Center
Tue 07:23:02 PM 43.4369 -108.1175 32° Northeast 215 247 17,000  Level Salt Lake Center
Tue 07:24:03 PM 43.4894 -108.0756 30° Northeast 217 250 17,000  Level Salt Lake Center
Tue 07:25:05 PM 43.5525 -108.0272 29° Northeast 217 250 17,000  Level Salt Lake Center
Tue 07:26:07 PM 43.6025 -107.9814 34° Northeast 216 249 17,000  Level Salt Lake Center
Tue 07:27:09 PM 43.6550 -107.9411 29° Northeast 216 249 17,000  Level Salt Lake Center
Tue 07:28:11 PM 43.7072 -107.9008 29° Northeast 216 249 17,000  Level Salt Lake Center
Tue 07:29:12 PM 43.7578 -107.8556 33° Northeast 216 249 17,000  Level Salt Lake Center
Tue 07:30:14 PM 43.8100 -107.8158 29° Northeast 216 249 17,000  Level Salt Lake Center
Tue 07:31:16 PM 43.8611 -107.7742 30° Northeast 214 246 17,000  Level Salt Lake Center
Tue 07:32:18 PM 43.9219 -107.7231 31° Northeast 214 246 17,000  Level Salt Lake Center
Tue 07:33:20 PM 43.9736 -107.6800 31° Northeast 215 247 17,000  Level Salt Lake Center
Tue 07:34:21 PM 44.0253 -107.6392 30° Northeast 215 247 17,000  Level Salt Lake Center
Tue 07:35:23 PM 44.0753 -107.5939 33° Northeast 215 247 17,000  Level Salt Lake Center
Tue 07:36:25 PM 44.1236 -107.5436 37° Northeast 215 247 17,000  Level Salt Lake Center
Tue 07:37:27 PM 44.1731 -107.4981 33° Northeast 216 249 17,000  Level Salt Lake Center
Tue 07:38:29 PM 44.2322 -107.4439 33° Northeast 215 247 17,000  Level Salt Lake Center
Tue 07:39:31 PM 44.2817 -107.3989 33° Northeast 213 245 17,000  Level Salt Lake Center
Tue 07:40:33 PM 44.3306 -107.3508 35° Northeast 214 246 17,000  Level Salt Lake Center
Tue 07:41:34 PM 44.3789 -107.3006 37° Northeast 217 250 17,000  Level Salt Lake Center
Tue 07:42:38 PM 44.4272 -107.2478 38° Northeast 220 253 17,000 -387 Level Salt Lake Center
Tue 07:43:38 PM 44.4683 -107.1994 40° Northeast 207 238 16,200 -738 Descending Salt Lake Center
Tue 07:44:40 PM 44.5144 -107.1444 40° Northeast 194 223 15,500 -871 Descending Salt Lake Center
Tue 07:45:42 PM 44.5536 -107.1108 31° Northeast 181 208 14,400 -1,317 Descending Salt Lake Center
Tue 07:46:43 PM 44.5883 -107.0786 33° Northeast 166 191 12,800 -1,561 Descending Salt Lake Center
Tue 07:47:45 PM 44.6158 -107.0414 44° Northeast 154 177 11,200 -1,597 Descending Salt Lake Center
Tue 07:48:47 PM 44.6447 -107.0111 37° Northeast 142 163 9,500 -1,016 Descending Salt Lake Center
Tue 07:49:49 PM 44.6736 -106.9828 35° Northeast 140 161 9,100 -387 Descending Salt Lake Center
Tue 07:51:00 PM 44.7400 -106.9810 35° Northeast  Level Estimated
Tue 07:58:00 PM 44.7667 -106.9667 35° Northeast  Level FlightAware Approximate

Login

Don't have an account? Register now (free) for customized features, flight alerts, and more!